sensor_id;sensor_type;location;lat;lon;timestamp;pressure;altitude;pressure_sealevel;temperature;humidity
13387;BME280;6763;48.524;9.044;2023-03-26T00:01:46;97352.59;;;11.23;57.31
13387;BME280;6763;48.524;9.044;2023-03-26T00:04:14;97354.38;;;11.23;57.48
13387;BME280;6763;48.524;9.044;2023-03-26T00:06:43;97359.56;;;11.23;57.83
13387;BME280;6763;48.524;9.044;2023-03-26T00:09:13;97361.94;;;11.29;57.81
13387;BME280;6763;48.524;9.044;2023-03-26T00:11:40;97369.59;;;11.34;57.98
13387;BME280;6763;48.524;9.044;2023-03-26T00:14:06;97365.09;;;11.40;57.93
13387;BME280;6763;48.524;9.044;2023-03-26T00:16:31;97365.75;;;11.47;58.24
13387;BME280;6763;48.524;9.044;2023-03-26T00:18:58;97365.66;;;11.51;57.62
13387;BME280;6763;48.524;9.044;2023-03-26T00:21:25;97365.59;;;11.53;57.61
13387;BME280;6763;48.524;9.044;2023-03-26T00:23:56;97354.38;;;11.52;57.86
13387;BME280;6763;48.524;9.044;2023-03-26T00:26:24;97361.28;;;11.52;57.34
13387;BME280;6763;48.524;9.044;2023-03-26T00:28:50;97357.91;;;11.50;57.84
13387;BME280;6763;48.524;9.044;2023-03-26T00:31:16;97364.03;;;11.47;57.50
13387;BME280;6763;48.524;9.044;2023-03-26T00:33:42;97364.09;;;11.44;57.99
13387;BME280;6763;48.524;9.044;2023-03-26T00:36:10;97366.75;;;11.43;57.69
13387;BME280;6763;48.524;9.044;2023-03-26T00:38:39;97360.78;;;11.41;57.72
13387;BME280;6763;48.524;9.044;2023-03-26T00:41:07;97355.59;;;11.41;57.65
13387;BME280;6763;48.524;9.044;2023-03-26T00:43:42;97353.94;;;11.38;57.60
13387;BME280;6763;48.524;9.044;2023-03-26T00:46:08;97354.03;;;11.35;57.57
13387;BME280;6763;48.524;9.044;2023-03-26T00:48:33;97360.22;;;11.30;57.91
13387;BME280;6763;48.524;9.044;2023-03-26T00:51:03;97345.56;;;11.29;57.78
13387;BME280;6763;48.524;9.044;2023-03-26T00:53:30;97342.22;;;11.25;57.73
13387;BME280;6763;48.524;9.044;2023-03-26T00:55:56;97344.03;;;11.21;57.43
13387;BME280;6763;48.524;9.044;2023-03-26T00:58:25;97345.84;;;11.18;57.91
13387;BME280;6763;48.524;9.044;2023-03-26T01:00:54;97338.09;;;11.18;57.93
13387;BME280;6763;48.524;9.044;2023-03-26T01:03:25;97334.66;;;11.17;57.56
13387;BME280;6763;48.524;9.044;2023-03-26T01:11:08;97317.56;;;11.12;58.04
13387;BME280;6763;48.524;9.044;2023-03-26T01:13:40;97317.56;;;11.12;57.96
13387;BME280;6763;48.524;9.044;2023-03-26T01:16:15;97311.53;;;11.11;57.67
13387;BME280;6763;48.524;9.044;2023-03-26T01:18:44;97308.94;;;11.11;58.06
13387;BME280;6763;48.524;9.044;2023-03-26T01:21:10;97302.91;;;11.11;57.97
13387;BME280;6763;48.524;9.044;2023-03-26T01:23:43;97291.75;;;11.09;58.04
13387;BME280;6763;48.524;9.044;2023-03-26T01:26:42;97291.66;;;11.12;58.09
13387;BME280;6763;48.524;9.044;2023-03-26T01:37:48;97283.19;;;11.07;57.76
13387;BME280;6763;48.524;9.044;2023-03-26T01:42:59;97271.16;;;11.04;58.23
13387;BME280;6763;48.524;9.044;2023-03-26T01:45:31;97262.47;;;11.05;57.82
13387;BME280;6763;48.524;9.044;2023-03-26T01:47:58;97253.03;;;11.04;58.40
13387;BME280;6763;48.524;9.044;2023-03-26T01:50:24;97252.13;;;11.05;58.01
13387;BME280;6763;48.524;9.044;2023-03-26T01:52:49;97244.34;;;11.05;58.24
13387;BME280;6763;48.524;9.044;2023-03-26T01:55:15;97240.88;;;11.06;58.27
13387;BME280;6763;48.524;9.044;2023-03-26T02:00:25;97232.31;;;11.04;57.77
13387;BME280;6763;48.524;9.044;2023-03-26T02:06:06;97228.03;;;11.03;58.18
13387;BME280;6763;48.524;9.044;2023-03-26T02:08:41;97212.41;;;11.06;57.82
13387;BME280;6763;48.524;9.044;2023-03-26T02:11:11;97209.75;;;11.08;58.34
13387;BME280;6763;48.524;9.044;2023-03-26T02:13:39;97201.03;;;11.10;58.19
13387;BME280;6763;48.524;9.044;2023-03-26T02:16:07;97196.78;;;11.09;58.68
13387;BME280;6763;48.524;9.044;2023-03-26T02:18:33;97191.59;;;11.09;58.63
13387;BME280;6763;48.524;9.044;2023-03-26T02:21:09;97183.06;;;11.06;58.46
13387;BME280;6763;48.524;9.044;2023-03-26T02:23:35;97182.25;;;11.04;58.26
13387;BME280;6763;48.524;9.044;2023-03-26T02:26:05;97185.56;;;11.09;58.11
13387;BME280;6763;48.524;9.044;2023-03-26T02:28:31;97183.97;;;11.05;57.97
13387;BME280;6763;48.524;9.044;2023-03-26T02:30:57;97171.13;;;11.02;58.07
13387;BME280;6763;48.524;9.044;2023-03-26T02:33:27;97168.53;;;11.02;58.01
13387;BME280;6763;48.524;9.044;2023-03-26T02:35:53;97170.25;;;11.01;57.87
13387;BME280;6763;48.524;9.044;2023-03-26T02:38:21;97165.06;;;11.01;58.23
13387;BME280;6763;48.524;9.044;2023-03-26T02:40:49;97156.41;;;11.02;58.24
13387;BME280;6763;48.524;9.044;2023-03-26T02:43:14;97146.91;;;11.03;58.01
13387;BME280;6763;48.524;9.044;2023-03-26T02:45:40;97151.19;;;11.04;58.42
13387;BME280;6763;48.524;9.044;2023-03-26T02:48:05;97136.50;;;11.04;58.21
13387;BME280;6763;48.524;9.044;2023-03-26T02:50:32;97137.31;;;11.06;57.96
13387;BME280;6763;48.524;9.044;2023-03-26T02:53:01;97123.47;;;11.07;58.14
13387;BME280;6763;48.524;9.044;2023-03-26T02:55:26;97112.19;;;11.08;58.39
13387;BME280;6763;48.524;9.044;2023-03-26T02:57:51;97108.66;;;11.11;58.36
13387;BME280;6763;48.524;9.044;2023-03-26T03:00:17;97110.38;;;11.12;58.35
13387;BME280;6763;48.524;9.044;2023-03-26T03:02:46;97099.94;;;11.13;58.22
13387;BME280;6763;48.524;9.044;2023-03-26T03:05:14;97098.16;;;11.15;58.09
13387;BME280;6763;48.524;9.044;2023-03-26T03:07:42;97097.28;;;11.16;58.48
13387;BME280;6763;48.524;9.044;2023-03-26T03:10:07;97090.34;;;11.17;58.09
13387;BME280;6763;48.524;9.044;2023-03-26T03:12:34;97083.31;;;11.20;58.38
13387;BME280;6763;48.524;9.044;2023-03-26T03:15:01;97086.81;;;11.19;58.36
13387;BME280;6763;48.524;9.044;2023-03-26T03:17:26;97085.81;;;11.23;58.06
13387;BME280;6763;48.524;9.044;2023-03-26T03:19:52;97079.84;;;11.21;58.28
13387;BME280;6763;48.524;9.044;2023-03-26T03:22:17;97081.44;;;11.26;58.10
13387;BME280;6763;48.524;9.044;2023-03-26T03:24:44;97071.91;;;11.26;58.46
13387;BME280;6763;48.524;9.044;2023-03-26T03:27:09;97071.97;;;11.25;58.22
13387;BME280;6763;48.524;9.044;2023-03-26T03:29:35;97065.06;;;11.25;58.15
13387;BME280;6763;48.524;9.044;2023-03-26T03:32:00;97058.00;;;11.29;58.30
13387;BME280;6763;48.524;9.044;2023-03-26T03:34:26;97059.72;;;11.30;58.33
13387;BME280;6763;48.524;9.044;2023-03-26T03:36:51;97053.69;;;11.29;58.42
13387;BME280;6763;48.524;9.044;2023-03-26T03:39:17;97054.53;;;11.30;58.14
13387;BME280;6763;48.524;9.044;2023-03-26T03:41:42;97048.47;;;11.31;58.37
13387;BME280;6763;48.524;9.044;2023-03-26T03:44:07;97050.13;;;11.32;58.50
13387;BME280;6763;48.524;9.044;2023-03-26T03:46:33;97053.59;;;11.32;58.52
13387;BME280;6763;48.524;9.044;2023-03-26T03:48:58;97049.34;;;11.30;58.41
13387;BME280;6763;48.524;9.044;2023-03-26T03:51:23;97047.66;;;11.29;58.30
13387;BME280;6763;48.524;9.044;2023-03-26T03:53:49;97049.50;;;11.25;58.50
13387;BME280;6763;48.524;9.044;2023-03-26T03:56:15;97038.31;;;11.25;58.09
13387;BME280;6763;48.524;9.044;2023-03-26T03:58:43;97041.75;;;11.25;58.37
13387;BME280;6763;48.524;9.044;2023-03-26T04:01:11;97036.59;;;11.23;58.08
13387;BME280;6763;48.524;9.044;2023-03-26T04:03:38;97028.00;;;11.23;58.68
13387;BME280;6763;48.524;9.044;2023-03-26T04:06:05;97021.91;;;11.24;58.10
13387;BME280;6763;48.524;9.044;2023-03-26T04:08:35;97021.06;;;11.23;58.46
13387;BME280;6763;48.524;9.044;2023-03-26T04:11:01;97009.88;;;11.23;58.30
13387;BME280;6763;48.524;9.044;2023-03-26T04:13:26;96999.53;;;11.21;58.60
13387;BME280;6763;48.524;9.044;2023-03-26T04:15:52;97001.28;;;11.21;58.07
13387;BME280;6763;48.524;9.044;2023-03-26T04:18:17;96997.00;;;11.20;58.21
13387;BME280;6763;48.524;9.044;2023-03-26T04:20:44;96995.25;;;11.20;58.27
13387;BME280;6763;48.524;9.044;2023-03-26T04:23:17;96995.38;;;11.17;58.03
13387;BME280;6763;48.524;9.044;2023-03-26T04:25:52;96998.84;;;11.16;57.97
13387;BME280;6763;48.524;9.044;2023-03-26T04:28:29;96992.78;;;11.17;58.07
13387;BME280;6763;48.524;9.044;2023-03-26T04:30:56;96990.19;;;11.17;58.36
13387;BME280;6763;48.524;9.044;2023-03-26T04:33:28;96982.47;;;11.16;58.36
13387;BME280;6763;48.524;9.044;2023-03-26T04:35:55;96986.75;;;11.17;58.02
13387;BME280;6763;48.524;9.044;2023-03-26T04:38:26;96977.19;;;11.19;58.21
13387;BME280;6763;48.524;9.044;2023-03-26T04:40:51;96974.53;;;11.20;58.20
13387;BME280;6763;48.524;9.044;2023-03-26T04:43:17;96969.25;;;11.23;58.12
13387;BME280;6763;48.524;9.044;2023-03-26T04:45:42;96972.75;;;11.23;58.67
13387;BME280;6763;48.524;9.044;2023-03-26T04:48:10;96962.31;;;11.24;58.48
13387;BME280;6763;48.524;9.044;2023-03-26T04:50:40;96957.22;;;11.23;58.52
13387;BME280;6763;48.524;9.044;2023-03-26T04:53:06;96926.16;;;11.21;58.10
13387;BME280;6763;48.524;9.044;2023-03-26T04:58:16;96939.19;;;11.19;58.04
13387;BME280;6763;48.524;9.044;2023-03-26T05:00:42;96946.28;;;11.14;58.07
13387;BME280;6763;48.524;9.044;2023-03-26T05:03:11;96959.31;;;11.11;58.15
13387;BME280;6763;48.524;9.044;2023-03-26T05:05:37;96952.56;;;11.07;58.33
13387;BME280;6763;48.524;9.044;2023-03-26T05:08:02;96942.25;;;11.06;58.36
13387;BME280;6763;48.524;9.044;2023-03-26T05:10:28;96940.59;;;11.03;58.57
13387;BME280;6763;48.524;9.044;2023-03-26T05:12:53;96948.38;;;11.03;58.65
13387;BME280;6763;48.524;9.044;2023-03-26T05:15:18;96937.13;;;11.04;58.16
13387;BME280;6763;48.524;9.044;2023-03-26T05:17:44;96937.13;;;11.04;58.61
13387;BME280;6763;48.524;9.044;2023-03-26T05:20:22;96917.19;;;11.06;58.63
13387;BME280;6763;48.524;9.044;2023-03-26T05:22:49;96912.81;;;11.08;58.54
13387;BME280;6763;48.524;9.044;2023-03-26T05:25:15;96904.03;;;11.12;58.71
13387;BME280;6763;48.524;9.044;2023-03-26T05:27:43;96888.34;;;11.17;58.33
13387;BME280;6763;48.524;9.044;2023-03-26T05:30:14;96885.53;;;11.23;58.31
13387;BME280;6763;48.524;9.044;2023-03-26T05:32:41;96883.75;;;11.25;58.44
13387;BME280;6763;48.524;9.044;2023-03-26T05:35:07;96885.38;;;11.28;58.23
13387;BME280;6763;48.524;9.044;2023-03-26T05:37:32;96868.91;;;11.29;58.51
13387;BME280;6763;48.524;9.044;2023-03-26T05:39:58;96867.84;;;11.34;58.18
13387;BME280;6763;48.524;9.044;2023-03-26T05:42:24;96862.63;;;11.36;58.29
13387;BME280;6763;48.524;9.044;2023-03-26T05:44:50;96856.41;;;11.40;58.40
13387;BME280;6763;48.524;9.044;2023-03-26T05:47:15;96850.19;;;11.45;57.86
13387;BME280;6763;48.524;9.044;2023-03-26T05:49:41;96844.03;;;11.48;57.97
13387;BME280;6763;48.524;9.044;2023-03-26T05:52:06;96849.88;;;11.53;58.06
13387;BME280;6763;48.524;9.044;2023-03-26T05:54:32;96845.44;;;11.56;58.26
13387;BME280;6763;48.524;9.044;2023-03-26T05:56:57;96840.88;;;11.63;58.29
13387;BME280;6763;48.524;9.044;2023-03-26T05:59:24;96830.31;;;11.67;58.27
13387;BME280;6763;48.524;9.044;2023-03-26T06:01:49;96834.47;;;11.73;57.99
13387;BME280;6763;48.524;9.044;2023-03-26T06:04:16;96831.72;;;11.77;58.14
13387;BME280;6763;48.524;9.044;2023-03-26T06:06:42;96824.59;;;11.82;58.04
13387;BME280;6763;48.524;9.044;2023-03-26T06:09:09;96823.50;;;11.88;58.01
13387;BME280;6763;48.524;9.044;2023-03-26T06:11:37;96817.22;;;11.94;57.79
13387;BME280;6763;48.524;9.044;2023-03-26T06:14:04;96817.06;;;11.98;58.00
13387;BME280;6763;48.524;9.044;2023-03-26T06:16:29;96811.69;;;12.03;57.63
13387;BME280;6763;48.524;9.044;2023-03-26T06:18:55;96805.47;;;12.07;57.52
13387;BME280;6763;48.524;9.044;2023-03-26T06:21:21;96806.19;;;12.10;57.76
13387;BME280;6763;48.524;9.044;2023-03-26T06:23:46;96800.94;;;12.12;57.54
13387;BME280;6763;48.524;9.044;2023-03-26T06:26:13;96801.66;;;12.15;57.60
13387;BME280;6763;48.524;9.044;2023-03-26T06:28:39;96799.00;;;12.17;57.88
13387;BME280;6763;48.524;9.044;2023-03-26T06:31:04;96793.56;;;12.23;57.89
13387;BME280;6763;48.524;9.044;2023-03-26T06:33:30;96786.44;;;12.28;57.62
13387;BME280;6763;48.524;9.044;2023-03-26T06:35:55;96784.50;;;12.33;57.38
13387;BME280;6763;48.524;9.044;2023-03-26T06:38:21;96774.84;;;12.36;57.55
13387;BME280;6763;48.524;9.044;2023-03-26T06:40:47;96767.75;;;12.40;57.66
13387;BME280;6763;48.524;9.044;2023-03-26T06:43:12;96770.22;;;12.43;57.46
13387;BME280;6763;48.524;9.044;2023-03-26T06:45:38;96772.69;;;12.46;57.45
13387;BME280;6763;48.524;9.044;2023-03-26T06:48:03;96763.09;;;12.48;57.46
13387;BME280;6763;48.524;9.044;2023-03-26T06:50:29;96746.69;;;12.48;57.34
13387;BME280;6763;48.524;9.044;2023-03-26T06:52:56;96738.19;;;12.44;57.09
13387;BME280;6763;48.524;9.044;2023-03-26T06:55:22;96728.69;;;12.43;57.53
13387;BME280;6763;48.524;9.044;2023-03-26T06:57:51;96728.56;;;12.46;57.17
13387;BME280;6763;48.524;9.044;2023-03-26T07:00:17;96727.59;;;12.49;57.24
13387;BME280;6763;48.524;9.044;2023-03-26T07:02:43;96728.19;;;12.55;57.36
13387;BME280;6763;48.524;9.044;2023-03-26T07:05:08;96733.09;;;12.61;57.12
13387;BME280;6763;48.524;9.044;2023-03-26T07:07:34;96725.06;;;12.67;57.46
13387;BME280;6763;48.524;9.044;2023-03-26T07:09:59;96715.38;;;12.71;56.84
13387;BME280;6763;48.524;9.044;2023-03-26T07:12:26;96718.00;;;12.71;56.58
13387;BME280;6763;48.524;9.044;2023-03-26T07:14:51;96703.31;;;12.70;56.51
13387;BME280;6763;48.524;9.044;2023-03-26T07:17:17;96700.84;;;12.67;56.24
13387;BME280;6763;48.524;9.044;2023-03-26T07:19:42;96692.94;;;12.70;56.60
13387;BME280;6763;48.524;9.044;2023-03-26T07:22:14;96688.25;;;12.78;56.75
13387;BME280;6763;48.524;9.044;2023-03-26T07:24:43;96679.13;;;12.88;56.58
13387;BME280;6763;48.524;9.044;2023-03-26T07:27:18;96677.78;;;12.98;56.67
13387;BME280;6763;48.524;9.044;2023-03-26T07:29:53;96674.16;;;13.02;56.49
13387;BME280;6763;48.524;9.044;2023-03-26T07:32:37;96658.69;;;12.99;54.56
13387;BME280;6763;48.524;9.044;2023-03-26T07:35:15;96663.94;;;12.97;55.31
13387;BME280;6763;48.524;9.044;2023-03-26T07:43:32;96644.72;;;12.83;54.98
13387;BME280;6763;48.524;9.044;2023-03-26T07:46:09;96629.06;;;12.84;55.51
13387;BME280;6763;48.524;9.044;2023-03-26T07:48:41;96646.84;;;12.93;54.92
13387;BME280;6763;48.524;9.044;2023-03-26T07:51:07;96629.56;;;12.92;55.10
13387;BME280;6763;48.524;9.044;2023-03-26T07:53:33;96645.22;;;12.91;55.01
13387;BME280;6763;48.524;9.044;2023-03-26T07:56:16;96636.84;;;12.84;54.46
13387;BME280;6763;48.524;9.044;2023-03-26T08:04:25;96630.06;;;12.82;55.29
13387;BME280;6763;48.524;9.044;2023-03-26T08:07:06;96634.34;;;12.83;55.42
13387;BME280;6763;48.524;9.044;2023-03-26T08:10:36;96622.00;;;12.88;55.51
13387;BME280;6763;48.524;9.044;2023-03-26T08:18:22;96629.72;;;13.08;55.13
13387;BME280;6763;48.524;9.044;2023-03-26T08:20:57;96624.63;;;13.07;55.54
13387;BME280;6763;48.524;9.044;2023-03-26T08:28:53;96619.66;;;13.00;55.89
13387;BME280;6763;48.524;9.044;2023-03-26T08:31:30;96611.16;;;12.97;56.55
13387;BME280;6763;48.524;9.044;2023-03-26T08:33:57;96601.63;;;12.97;56.49
13387;BME280;6763;48.524;9.044;2023-03-26T08:36:23;96595.66;;;12.95;57.24
13387;BME280;6763;48.524;9.044;2023-03-26T08:38:48;96607.66;;;12.98;57.44
13387;BME280;6763;48.524;9.044;2023-03-26T08:41:38;96602.47;;;12.98;56.75
13387;BME280;6763;48.524;9.044;2023-03-26T08:44:32;96605.06;;;12.98;57.00
13387;BME280;6763;48.524;9.044;2023-03-26T08:47:38;96620.66;;;12.98;57.53
13387;BME280;6763;48.524;9.044;2023-03-26T09:03:38;96606.78;;;13.18;57.79
13387;BME280;6763;48.524;9.044;2023-03-26T09:17:32;96624.31;;;13.65;57.37
13387;BME280;6763;48.524;9.044;2023-03-26T09:28:47;96631.75;;;14.07;57.23
13387;BME280;6763;48.524;9.044;2023-03-26T09:36:52;96610.13;;;14.72;55.72
13387;BME280;6763;48.524;9.044;2023-03-26T09:39:41;96604.41;;;14.97;56.01
13387;BME280;6763;48.524;9.044;2023-03-26T09:42:16;96599.09;;;15.30;55.03
13387;BME280;6763;48.524;9.044;2023-03-26T09:48:26;96595.56;;;15.46;53.82
13387;BME280;6763;48.524;9.044;2023-03-26T09:51:22;96593.78;;;15.47;53.35
13387;BME280;6763;48.524;9.044;2023-03-26T09:54:27;96591.88;;;15.19;51.76
13387;BME280;6763;48.524;9.044;2023-03-26T09:57:15;96601.72;;;15.14;51.88
13387;BME280;6763;48.524;9.044;2023-03-26T10:10:51;96610.84;;;14.26;50.43
13387;BME280;6763;48.524;9.044;2023-03-26T10:13:22;96614.94;;;14.30;50.62
13387;BME280;6763;48.524;9.044;2023-03-26T10:21:48;96611.75;;;14.58;50.32
13387;BME280;6763;48.524;9.044;2023-03-26T10:24:31;96605.25;;;14.82;49.64
13387;BME280;6763;48.524;9.044;2023-03-26T10:38:15;96587.78;;;17.71;42.54
13387;BME280;6763;48.524;9.044;2023-03-26T10:43:38;96593.31;;;18.31;42.19
13387;BME280;6763;48.524;9.044;2023-03-26T10:49:07;96588.16;;;19.16;39.64
13387;BME280;6763;48.524;9.044;2023-03-26T10:51:45;96583.72;;;19.29;38.89
13387;BME280;6763;48.524;9.044;2023-03-26T10:54:26;96596.63;;;18.96;39.00
13387;BME280;6763;48.524;9.044;2023-03-26T10:56:54;96591.63;;;18.55;39.73
13387;BME280;6763;48.524;9.044;2023-03-26T10:59:20;96594.75;;;18.22;40.04
13387;BME280;6763;48.524;9.044;2023-03-26T11:04:33;96597.09;;;17.75;40.77
13387;BME280;6763;48.524;9.044;2023-03-26T11:12:24;96612.03;;;18.25;39.92
13387;BME280;6763;48.524;9.044;2023-03-26T11:28:29;96599.50;;;19.88;36.22
13387;BME280;6763;48.524;9.044;2023-03-26T11:31:05;96581.81;;;19.78;36.00
13387;BME280;6763;48.524;9.044;2023-03-26T11:33:36;96591.25;;;19.34;36.14
13387;BME280;6763;48.524;9.044;2023-03-26T11:36:11;96599.78;;;19.25;36.47
13387;BME280;6763;48.524;9.044;2023-03-26T11:38:43;96595.09;;;19.04;36.90
13387;BME280;6763;48.524;9.044;2023-03-26T11:41:14;96591.91;;;18.76;37.36
13387;BME280;6763;48.524;9.044;2023-03-26T11:43:44;96572.47;;;18.54;37.59
13387;BME280;6763;48.524;9.044;2023-03-26T11:46:16;96583.75;;;18.68;37.60
13387;BME280;6763;48.524;9.044;2023-03-26T11:48:45;96584.94;;;19.00;37.08
13387;BME280;6763;48.524;9.044;2023-03-26T11:53:49;96580.88;;;19.56;35.59
13387;BME280;6763;48.524;9.044;2023-03-26T11:56:32;96577.31;;;19.57;36.09
13387;BME280;6763;48.524;9.044;2023-03-26T11:59:07;96579.56;;;19.85;35.45
13387;BME280;6763;48.524;9.044;2023-03-26T12:01:49;96573.81;;;19.80;35.20
13387;BME280;6763;48.524;9.044;2023-03-26T12:04:17;96572.75;;;19.83;35.18
13387;BME280;6763;48.524;9.044;2023-03-26T12:06:57;96564.00;;;20.17;35.24
13387;BME280;6763;48.524;9.044;2023-03-26T12:09:29;96559.06;;;20.58;34.77
13387;BME280;6763;48.524;9.044;2023-03-26T12:12:00;96557.00;;;20.73;33.31
13387;BME280;6763;48.524;9.044;2023-03-26T12:14:29;96548.13;;;20.96;30.72
13387;BME280;6763;48.524;9.044;2023-03-26T12:17:05;96557.09;;;21.04;29.76
13387;BME280;6763;48.524;9.044;2023-03-26T12:19:40;96543.13;;;21.15;30.41
13387;BME280;6763;48.524;9.044;2023-03-26T12:22:27;96540.00;;;21.21;30.14
13387;BME280;6763;48.524;9.044;2023-03-26T12:25:17;96538.31;;;21.84;29.76
13387;BME280;6763;48.524;9.044;2023-03-26T12:27:44;96530.34;;;22.15;29.43
13387;BME280;6763;48.524;9.044;2023-03-26T12:30:23;96523.94;;;22.39;27.32
13387;BME280;6763;48.524;9.044;2023-03-26T12:32:51;96513.88;;;22.44;26.41
13387;BME280;6763;48.524;9.044;2023-03-26T12:35:22;96524.09;;;21.54;25.82
13387;BME280;6763;48.524;9.044;2023-03-26T12:37:51;96506.75;;;21.09;26.56
13387;BME280;6763;48.524;9.044;2023-03-26T12:40:34;96516.94;;;21.14;26.62
13387;BME280;6763;48.524;9.044;2023-03-26T12:43:03;96503.75;;;21.45;26.32
13387;BME280;6763;48.524;9.044;2023-03-26T12:45:36;96508.28;;;21.86;26.51
13387;BME280;6763;48.524;9.044;2023-03-26T12:48:03;96505.94;;;22.13;24.29
13387;BME280;6763;48.524;9.044;2023-03-26T12:53:40;96476.13;;;21.92;23.18
13387;BME280;6763;48.524;9.044;2023-03-26T13:01:46;96493.56;;;21.52;24.41
13387;BME280;6763;48.524;9.044;2023-03-26T13:07:24;96478.28;;;22.08;24.37
13387;BME280;6763;48.524;9.044;2023-03-26T13:10:11;96465.56;;;22.13;23.76
13387;BME280;6763;48.524;9.044;2023-03-26T13:15:30;96462.69;;;21.75;23.26
13387;BME280;6763;48.524;9.044;2023-03-26T13:45:53;96437.25;;;22.95;25.23
13387;BME280;6763;48.524;9.044;2023-03-26T13:48:23;96424.75;;;22.47;25.78
13387;BME280;6763;48.524;9.044;2023-03-26T13:50:56;96431.41;;;22.02;26.61
13387;BME280;6763;48.524;9.044;2023-03-26T13:53:28;96427.50;;;21.55;27.34
13387;BME280;6763;48.524;9.044;2023-03-26T13:55:58;96430.06;;;20.82;27.77
13387;BME280;6763;48.524;9.044;2023-03-26T13:58:47;96431.78;;;20.05;27.40
13387;BME280;6763;48.524;9.044;2023-03-26T14:01:20;96440.00;;;19.33;28.86
13387;BME280;6763;48.524;9.044;2023-03-26T14:03:57;96444.16;;;19.24;28.68
13387;BME280;6763;48.524;9.044;2023-03-26T14:09:43;96431.34;;;19.08;29.12
13387;BME280;6763;48.524;9.044;2023-03-26T14:15:27;96418.38;;;19.64;28.79
13387;BME280;6763;48.524;9.044;2023-03-26T14:17:57;96413.53;;;20.26;28.24
13387;BME280;6763;48.524;9.044;2023-03-26T14:20:47;96406.50;;;20.37;27.39
13387;BME280;6763;48.524;9.044;2023-03-26T14:29:32;96419.84;;;19.33;27.69
13387;BME280;6763;48.524;9.044;2023-03-26T14:31:45;96448.66;;;19.46;28.33
13387;BME280;6763;48.524;9.044;2023-03-26T14:37:25;96448.38;;;19.84;28.35
13387;BME280;6763;48.524;9.044;2023-03-26T14:42:50;96444.75;;;19.51;30.82
13387;BME280;6763;48.524;9.044;2023-03-26T14:45:23;96456.44;;;19.24;31.23
13387;BME280;6763;48.524;9.044;2023-03-26T14:53:55;96463.56;;;18.38;32.65
13387;BME280;6763;48.524;9.044;2023-03-26T15:04:34;96488.88;;;17.36;32.82
13387;BME280;6763;48.524;9.044;2023-03-26T15:07:45;96501.91;;;17.24;33.52
13387;BME280;6763;48.524;9.044;2023-03-26T15:10:24;96485.78;;;17.17;33.97
13387;BME280;6763;48.524;9.044;2023-03-26T15:19:08;96503.72;;;16.42;35.42
13387;BME280;6763;48.524;9.044;2023-03-26T15:27:44;96543.31;;;14.71;43.64
13387;BME280;6763;48.524;9.044;2023-03-26T15:30:21;96538.13;;;13.90;46.05
13387;BME280;6763;48.524;9.044;2023-03-26T15:35:57;96549.50;;;12.83;49.66
13387;BME280;6763;48.524;9.044;2023-03-26T15:38:56;96552.38;;;12.59;51.63
13387;BME280;6763;48.524;9.044;2023-03-26T15:44:06;96559.25;;;12.22;53.36
13387;BME280;6763;48.524;9.044;2023-03-26T15:50:05;96553.66;;;12.31;54.17
13387;BME280;6763;48.524;9.044;2023-03-26T15:57:38;96537.81;;;12.56;52.98
13387;BME280;6763;48.524;9.044;2023-03-26T16:00:19;96538.06;;;12.69;52.96
13387;BME280;6763;48.524;9.044;2023-03-26T16:03:25;96551.53;;;12.77;52.43
13387;BME280;6763;48.524;9.044;2023-03-26T16:06:27;96576.88;;;12.72;51.98
13387;BME280;6763;48.524;9.044;2023-03-26T16:09:28;96582.91;;;12.54;51.76
13387;BME280;6763;48.524;9.044;2023-03-26T16:11:59;96591.09;;;12.63;52.12
13387;BME280;6763;48.524;9.044;2023-03-26T16:15:32;96570.69;;;12.93;51.58
13387;BME280;6763;48.524;9.044;2023-03-26T16:20:54;96573.91;;;14.02;48.63
13387;BME280;6763;48.524;9.044;2023-03-26T16:23:34;96584.81;;;14.26;47.35
13387;BME280;6763;48.524;9.044;2023-03-26T16:26:22;96585.88;;;14.22;46.67
13387;BME280;6763;48.524;9.044;2023-03-26T16:31:24;96599.09;;;13.67;47.58
13387;BME280;6763;48.524;9.044;2023-03-26T16:36:32;96602.03;;;13.26;48.96
13387;BME280;6763;48.524;9.044;2023-03-26T16:41:31;96603.09;;;13.22;49.20
13387;BME280;6763;48.524;9.044;2023-03-26T16:43:58;96612.63;;;13.21;49.65
13387;BME280;6763;48.524;9.044;2023-03-26T16:49:25;96613.34;;;13.25;49.34
13387;BME280;6763;48.524;9.044;2023-03-26T16:52:21;96611.78;;;13.21;48.92
13387;BME280;6763;48.524;9.044;2023-03-26T16:57:27;96617.44;;;13.12;48.24
13387;BME280;6763;48.524;9.044;2023-03-26T17:10:55;96631.69;;;12.66;48.66
13387;BME280;6763;48.524;9.044;2023-03-26T17:16:14;96627.19;;;12.69;49.05
13387;BME280;6763;48.524;9.044;2023-03-26T17:19:05;96624.56;;;12.69;49.05
13387;BME280;6763;48.524;9.044;2023-03-26T17:24:28;96622.97;;;12.67;49.15
13387;BME280;6763;48.524;9.044;2023-03-26T17:27:15;96627.41;;;12.65;49.34
13387;BME280;6763;48.524;9.044;2023-03-26T17:35:34;96620.16;;;12.71;49.29
13387;BME280;6763;48.524;9.044;2023-03-26T17:38:00;96631.34;;;12.73;49.76
13387;BME280;6763;48.524;9.044;2023-03-26T17:43:32;96636.66;;;12.70;49.49
13387;BME280;6763;48.524;9.044;2023-03-26T17:46:00;96622.19;;;12.65;50.41
13387;BME280;6763;48.524;9.044;2023-03-26T17:48:28;96617.13;;;12.62;49.78
13387;BME280;6763;48.524;9.044;2023-03-26T17:54:07;96622.38;;;12.41;50.63
13387;BME280;6763;48.524;9.044;2023-03-26T17:56:39;96617.59;;;12.32;50.63
13387;BME280;6763;48.524;9.044;2023-03-26T17:59:05;96615.34;;;12.25;50.85
13387;BME280;6763;48.524;9.044;2023-03-26T18:01:38;96617.38;;;12.18;51.14
13387;BME280;6763;48.524;9.044;2023-03-26T18:04:07;96616.78;;;12.12;51.53
13387;BME280;6763;48.524;9.044;2023-03-26T18:17:19;96623.03;;;11.88;52.58
13387;BME280;6763;48.524;9.044;2023-03-26T18:19:50;96623.16;;;11.85;53.15
13387;BME280;6763;48.524;9.044;2023-03-26T18:22:25;96638.72;;;11.85;52.52
13387;BME280;6763;48.524;9.044;2023-03-26T18:24:57;96622.50;;;11.79;53.07
13387;BME280;6763;48.524;9.044;2023-03-26T18:27:25;96628.53;;;11.80;53.30
13387;BME280;6763;48.524;9.044;2023-03-26T18:32:22;96627.09;;;11.73;53.22
13387;BME280;6763;48.524;9.044;2023-03-26T18:34:56;96633.25;;;11.70;53.34
13387;BME280;6763;48.524;9.044;2023-03-26T18:37:42;96626.41;;;11.68;53.46
13387;BME280;6763;48.524;9.044;2023-03-26T18:40:14;96629.00;;;11.68;53.33